Aérodrome :
LOGIN :

S'inscrire | Disclaimer

   EN    FR    IT 

 










Légende :    VFR   VFR Marginal   IFR   IFR Intensif   IFR Très Intensif
Visi : 
Plafond : 
>= 8 km
>= 3000ft
5 à 8 km
1000 à 3000 ft
1500m à 5 km
500 à 1000 ft
800 à 1500m
200 à 500 ft
< 800m
< 200 ft
Symboles :   Orages  Brouillard  Fortes neiges  Fortes précipitations  Vent > 20 kt
SIGMETs :   Divers  Orages  Givrage  Turbulence  Onde Orograph.  Cendres Volcan.






- Altitude de l'aérodrome : 13 ft
- Code IATA : LYX


EGMD - Lydd

DERNIER METAR :
  • 172050Z AUTO 25019KT 9999 NCD 08/05 Q1017

METARs EXPIRÉS :
  • 172020Z AUTO 25018KT 9999 NCD 08/06 Q1016
  • 171950Z AUTO 25015KT 9999 NCD 08/05 Q1016
  • 171920Z AUTO 25019KT 9999 NCD 09/06 Q1016
  • 171850Z AUTO 25018KT 9999 NCD 09/06 Q1015
  • 171820Z 24019KT 9999 FEW018 09/06 Q1015

TAF TAF EGMD
Valide du 17 à 21h jusqu'au 18 à 06h UTC


172005Z 1721/1806 24018KT 9999 SCT025
ATIS : +44 1797 322 422



MET'MAP, la Météo Aéronautique d'un coup d'oeil ! - Copyright ORBIFLY Décembre 2007 - Disclaimer

ORBIFLY MET'MAP TEAM :

Programmation & Développement : Alexandra Zaïnal
Sur une idée originale de : Baudouin d'Aumeries
Assistance à la programmation : Marc-Olivier Méhu
Soutien technique & logistique : Manuel Goepfert

Contact : metmap@orbifly.com




SOURCES & CREDITS :

   NOAA